Time;durP1;ratioP1;P1;durP2;ratioP2;P2;SDS_P1;SDS_P2;PMS_P1;PMS_P2;Temp;Humidity;BMP_temperature;BMP_pressure;BME280_temperature;BME280_humidity;BME280_pressure;Samples;Min_cycle;Max_cycle;Signal;HPM_P1;HPM_P2
2021/08/25 00:01:27;;;;;;;6.22;2.85;;;22.70;91.50;;;;;;4974187;28;20035;-73
2021/08/25 00:03:53;;;;;;;4.05;2.20;;;22.60;91.40;;;;;;4972678;28;20383;-74
2021/08/25 00:06:19;;;;;;;5.97;2.72;;;22.60;91.40;;;;;;4974803;28;20502;-75
2021/08/25 00:08:44;;;;;;;5.47;2.92;;;22.60;91.40;;;;;;4974374;28;20030;-75
2021/08/25 00:11:10;;;;;;;4.95;2.53;;;22.60;91.40;;;;;;4975002;28;20550;-76
2021/08/25 00:13:36;;;;;;;5.50;2.17;;;22.60;91.40;;;;;;4974651;28;20027;-73
2021/08/25 00:16:02;;;;;;;5.85;2.85;;;22.60;91.40;;;;;;4972918;28;20130;-72
2021/08/25 00:18:27;;;;;;;4.78;1.95;;;22.60;91.30;;;;;;4973916;28;20023;-73
2021/08/25 00:20:53;;;;;;;4.05;1.75;;;22.60;91.40;;;;;;4958546;28;20035;-74
2021/08/25 00:23:19;;;;;;;3.90;1.80;;;22.60;91.40;;;;;;4962084;28;20023;-76
2021/08/25 00:25:44;;;;;;;3.78;1.90;;;22.60;91.30;;;;;;4973185;28;20086;-75
2021/08/25 00:28:10;;;;;;;3.50;2.30;;;22.60;91.30;;;;;;4974163;28;20077;-75
2021/08/25 00:30:36;;;;;;;4.53;2.17;;;22.60;91.30;;;;;;4974173;28;20442;-76
2021/08/25 00:33:01;;;;;;;4.38;2.28;;;22.50;91.20;;;;;;4973682;28;20078;-72
2021/08/25 00:35:27;;;;;;;3.65;1.50;;;22.60;91.30;;;;;;4973918;28;20074;-75
2021/08/25 00:37:53;;;;;;;3.20;1.60;;;22.60;91.30;;;;;;4974254;28;20031;-75
2021/08/25 00:40:19;;;;;;;4.90;1.52;;;22.60;91.30;;;;;;4974457;28;20019;-76
2021/08/25 00:42:45;;;;;;;4.60;2.13;;;22.50;91.20;;;;;;4973548;28;20046;-75
2021/08/25 00:45:11;;;;;;;4.18;1.90;;;22.50;91.20;;;;;;4974160;28;20023;-74
2021/08/25 00:47:41;;;;;;;4.18;1.90;;;22.50;91.20;;;;;;4973984;28;20037;-74
2021/08/25 00:50:12;;;;;;;3.80;1.67;;;22.50;91.30;;;;;;4973697;28;20031;-74
2021/08/25 00:52:39;;;;;;;2.97;1.80;;;22.50;91.20;;;;;;4956026;28;20423;-74
2021/08/25 00:55:06;;;;;;;2.65;1.98;;;22.50;91.20;;;;;;4973621;28;20027;-75
2021/08/25 00:57:35;;;;;;;4.05;1.90;;;22.50;91.20;;;;;;4958684;28;20031;-74
2021/08/25 01:00:02;;;;;;;3.72;1.42;;;22.50;91.30;;;;;;4953574;29;20053;-74
2021/08/25 01:02:44;;;;;;;6.40;1.80;;;22.50;91.30;;;;;;4949211;28;20118;-75
2021/08/25 01:05:10;;;;;;;3.13;1.48;;;22.50;91.20;;;;;;4973109;28;20030;-74
2021/08/25 01:07:39;;;;;;;2.60;1.52;;;22.50;91.20;;;;;;4973102;28;20135;-73
2021/08/25 01:10:26;;;;;;;3.38;1.75;;;22.50;91.20;;;;;;4973803;28;20027;-73
2021/08/25 01:12:53;;;;;;;3.30;1.83;;;22.40;91.20;;;;;;4973424;28;20585;-75
2021/08/25 01:15:19;;;;;;;3.45;1.50;;;22.50;91.20;;;;;;4973118;28;20475;-75
2021/08/25 01:17:46;;;;;;;3.25;1.67;;;22.40;91.20;;;;;;4973422;28;20045;-74
2021/08/25 01:20:14;;;;;;;3.45;1.63;;;22.40;91.20;;;;;;4972975;28;20042;-74
2021/08/25 01:22:41;;;;;;;3.15;1.52;;;22.40;91.10;;;;;;4973119;28;20062;-74
2021/08/25 01:25:09;;;;;;;2.97;1.55;;;22.40;91.10;;;;;;4973006;28;20066;-76
2021/08/25 01:27:38;;;;;;;2.50;1.80;;;22.40;91.10;;;;;;4941600;29;20121;-75
2021/08/25 01:30:05;;;;;;;3.75;1.40;;;22.40;91.10;;;;;;4954168;29;20086;-75
2021/08/25 01:32:36;;;;;;;3.80;1.65;;;22.40;91.50;;;;;;4969243;28;20055;-75
2021/08/25 01:35:02;;;;;;;3.45;1.55;;;22.40;91.30;;;;;;4972908;28;20491;-75
2021/08/25 01:37:28;;;;;;;3.00;1.70;;;22.40;91.50;;;;;;4973071;28;20031;-75
2021/08/25 01:39:55;;;;;;;4.13;1.77;;;22.40;91.50;;;;;;4973125;28;20077;-73
2021/08/25 01:42:22;;;;;;;2.72;1.33;;;22.40;91.50;;;;;;4955975;28;20027;-73
2021/08/25 01:44:49;;;;;;;3.60;1.48;;;22.40;91.70;;;;;;4973211;28;20106;-75
2021/08/25 01:47:15;;;;;;;3.20;1.80;;;22.40;91.70;;;;;;4973044;28;20497;-75
2021/08/25 01:49:42;;;;;;;3.50;1.40;;;22.40;91.70;;;;;;4972321;28;20334;-76
2021/08/25 01:52:08;;;;;;;3.53;1.40;;;22.40;91.80;;;;;;4971138;28;20082;-73
2021/08/25 01:54:33;;;;;;;2.42;1.17;;;22.40;92.00;;;;;;4972456;28;20023;-75
2021/08/25 01:56:59;;;;;;;3.10;1.75;;;22.40;91.90;;;;;;4963509;28;20407;-73
2021/08/25 01:59:25;;;;;;;2.15;1.13;;;22.40;91.80;;;;;;4953495;29;20019;-76
2021/08/25 02:01:50;;;;;;;2.58;1.40;;;22.40;92.00;;;;;;4956998;28;20030;-74
2021/08/25 02:04:16;;;;;;;1.75;1.08;;;22.40;92.00;;;;;;4973244;28;20518;-75
2021/08/25 02:06:42;;;;;;;2.75;1.63;;;22.40;92.10;;;;;;4954700;28;20038;-75
2021/08/25 02:09:07;;;;;;;5.30;1.92;;;22.40;92.00;;;;;;4972763;28;20033;-76
2021/08/25 02:11:33;;;;;;;3.40;1.40;;;22.40;92.00;;;;;;4971861;28;20049;-74
2021/08/25 02:13:59;;;;;;;2.25;1.52;;;22.40;92.10;;;;;;4972739;28;20105;-75
2021/08/25 02:16:25;;;;;;;2.53;1.30;;;22.40;91.90;;;;;;4951330;29;20038;-74
2021/08/25 02:18:50;;;;;;;2.95;1.60;;;22.30;92.00;;;;;;4953743;29;20034;-75
2021/08/25 02:21:16;;;;;;;2.20;1.20;;;22.30;92.00;;;;;;4950903;28;20090;-74
2021/08/25 02:23:42;;;;;;;4.55;1.42;;;22.40;92.00;;;;;;4972321;28;20023;-75
2021/08/25 02:26:15;;;;;;;3.70;1.27;;;22.30;92.00;;;;;;4969061;28;20026;-75
2021/08/25 02:28:49;;;;;;;3.58;1.50;;;22.30;92.10;;;;;;4951547;29;20050;-75
2021/08/25 02:31:15;;;;;;;2.70;1.63;;;22.30;92.00;;;;;;4957720;28;20529;-76
2021/08/25 02:33:41;;;;;;;2.95;1.65;;;22.30;91.80;;;;;;4972211;28;20023;-73
2021/08/25 02:36:07;;;;;;;2.58;1.50;;;22.30;91.80;;;;;;4970202;28;20031;-75
2021/08/25 02:38:34;;;;;;;2.95;1.48;;;22.30;91.60;;;;;;4972027;28;20023;-75
2021/08/25 02:41:00;;;;;;;2.40;1.35;;;22.30;91.70;;;;;;4972375;28;20027;-74
2021/08/25 02:43:26;;;;;;;1.85;1.20;;;22.30;91.60;;;;;;4972033;28;20113;-76
2021/08/25 02:45:52;;;;;;;2.30;1.30;;;22.30;91.50;;;;;;4971993;28;20113;-76
2021/08/25 02:48:18;;;;;;;3.53;1.83;;;22.30;91.60;;;;;;4971475;28;20022;-72
2021/08/25 02:50:43;;;;;;;2.47;1.17;;;22.30;91.60;;;;;;4969275;28;20035;-75
2021/08/25 02:53:09;;;;;;;6.10;1.42;;;22.30;91.50;;;;;;4972321;28;20418;-75
2021/08/25 02:55:35;;;;;;;2.90;1.33;;;22.20;91.70;;;;;;4971629;28;20035;-75
2021/08/25 02:58:00;;;;;;;2.83;1.50;;;22.30;91.50;;;;;;4953435;28;20030;-73
2021/08/25 03:00:26;;;;;;;3.28;1.40;;;22.20;91.30;;;;;;4958853;28;20031;-75
2021/08/25 03:02:52;;;;;;;2.70;1.40;;;22.20;91.30;;;;;;4972080;28;20521;-75
2021/08/25 03:05:18;;;;;;;4.05;1.48;;;22.20;91.30;;;;;;4972128;28;20060;-76
2021/08/25 03:07:43;;;;;;;2.30;1.38;;;22.20;91.20;;;;;;4970449;28;20031;-74
2021/08/25 03:10:10;;;;;;;3.63;1.30;;;22.20;91.20;;;;;;4970376;28;20034;-74
2021/08/25 03:12:36;;;;;;;3.53;1.27;;;22.20;91.10;;;;;;4971633;28;20586;-76
2021/08/25 03:15:04;;;;;;;3.35;1.73;;;22.20;91.00;;;;;;4971608;28;20058;-75
2021/08/25 03:17:30;;;;;;;3.25;1.42;;;22.20;91.10;;;;;;4954460;28;20035;-76
2021/08/25 03:19:55;;;;;;;2.58;1.40;;;22.20;91.10;;;;;;4971781;28;20398;-74
2021/08/25 03:22:21;;;;;;;1.98;1.20;;;22.20;91.00;;;;;;4971123;28;20487;-74
2021/08/25 03:24:47;;;;;;;4.53;1.45;;;22.20;91.00;;;;;;4971274;28;20057;-76
2021/08/25 03:27:12;;;;;;;5.28;1.52;;;22.20;91.00;;;;;;4960616;28;20055;-75
2021/08/25 03:29:38;;;;;;;2.20;1.30;;;22.20;90.90;;;;;;4952079;28;20027;-76
2021/08/25 03:32:04;;;;;;;3.03;1.30;;;22.20;91.00;;;;;;4970970;28;20051;-75
2021/08/25 03:34:30;;;;;;;2.78;1.60;;;22.20;91.00;;;;;;4971727;28;20037;-74
2021/08/25 03:36:55;;;;;;;3.20;1.25;;;22.10;90.90;;;;;;4971909;28;20113;-76
2021/08/25 03:39:21;;;;;;;2.42;1.42;;;22.20;91.00;;;;;;4975219;28;20057;-75
2021/08/25 03:41:47;;;;;;;3.03;1.55;;;22.10;91.00;;;;;;4975413;28;20042;-75
2021/08/25 03:44:12;;;;;;;10.13;1.63;;;22.20;90.90;;;;;;4975112;28;20027;-75
2021/08/25 03:46:38;;;;;;;3.13;1.30;;;22.10;90.80;;;;;;4974980;28;20395;-75
2021/08/25 03:49:03;;;;;;;3.78;1.52;;;22.10;90.70;;;;;;4975109;28;20031;-76
2021/08/25 03:51:29;;;;;;;3.20;1.45;;;22.10;90.70;;;;;;4973113;28;20487;-75
2021/08/25 03:53:55;;;;;;;2.70;1.60;;;22.10;90.60;;;;;;4974693;28;20031;-76
2021/08/25 03:56:20;;;;;;;2.15;1.20;;;22.10;90.60;;;;;;4974811;28;20426;-77
2021/08/25 03:58:46;;;;;;;3.10;1.50;;;22.10;90.70;;;;;;4975068;28;20082;-76
2021/08/25 04:01:12;;;;;;;1.77;1.10;;;22.10;90.70;;;;;;4974825;28;20034;-76
2021/08/25 04:03:38;;;;;;;3.75;1.30;;;22.10;90.60;;;;;;4975022;28;20023;-76
2021/08/25 04:06:04;;;;;;;2.70;1.33;;;22.10;90.70;;;;;;4956737;28;20033;-74
2021/08/25 04:08:30;;;;;;;1.98;1.35;;;22.10;90.70;;;;;;4974017;28;20035;-76
2021/08/25 04:10:56;;;;;;;2.88;1.50;;;22.10;90.60;;;;;;4974595;28;20047;-75
2021/08/25 04:13:21;;;;;;;2.00;1.23;;;22.10;90.50;;;;;;4973614;28;20438;-74
2021/08/25 04:15:48;;;;;;;2.33;1.02;;;22.10;90.90;;;;;;4974555;28;20029;-75
2021/08/25 04:18:13;;;;;;;2.60;1.40;;;22.10;90.80;;;;;;4974491;28;20058;-75
2021/08/25 04:20:39;;;;;;;2.45;1.30;;;22.10;90.60;;;;;;4974438;28;20062;-75
2021/08/25 04:23:05;;;;;;;3.10;1.30;;;22.00;90.60;;;;;;4972355;28;20027;-75
2021/08/25 04:25:30;;;;;;;3.33;1.52;;;22.00;90.70;;;;;;4973675;28;20025;-75
2021/08/25 04:27:56;;;;;;;2.58;1.00;;;22.00;90.50;;;;;;4953760;28;20078;-75
2021/08/25 04:30:22;;;;;;;3.03;1.40;;;22.00;90.70;;;;;;4955240;29;20039;-74
2021/08/25 04:32:47;;;;;;;1.83;1.10;;;22.00;90.60;;;;;;4972677;28;20027;-76
2021/08/25 04:35:13;;;;;;;2.78;1.27;;;22.00;90.70;;;;;;4973635;28;20432;-72
2021/08/25 04:37:39;;;;;;;3.22;1.20;;;22.00;90.40;;;;;;4971971;28;20145;-75
2021/08/25 04:40:05;;;;;;;1.80;1.20;;;22.00;90.70;;;;;;4974010;28;20031;-76
2021/08/25 04:42:31;;;;;;;2.58;1.65;;;22.00;90.50;;;;;;4974082;28;20035;-75
2021/08/25 04:44:58;;;;;;;3.83;1.50;;;22.00;90.50;;;;;;4974149;28;20491;-75
2021/08/25 04:47:24;;;;;;;2.03;1.15;;;22.00;90.40;;;;;;4974305;28;20031;-76
2021/08/25 04:49:49;;;;;;;2.65;1.60;;;22.00;90.30;;;;;;4973741;28;20606;-75
2021/08/25 04:52:15;;;;;;;2.45;1.13;;;22.00;90.60;;;;;;4973188;28;20502;-76
2021/08/25 04:54:41;;;;;;;1.67;1.08;;;22.00;90.60;;;;;;4973495;28;20472;-76
2021/08/25 04:57:06;;;;;;;4.32;1.73;;;22.00;90.70;;;;;;4973388;28;20093;-74
2021/08/25 04:59:32;;;;;;;2.63;1.52;;;22.00;90.40;;;;;;4956731;28;20027;-75
2021/08/25 05:01:58;;;;;;;2.58;1.63;;;22.00;90.50;;;;;;4951526;28;20093;-76
2021/08/25 05:04:24;;;;;;;2.03;1.27;;;22.00;90.70;;;;;;4973601;28;20050;-75
2021/08/25 05:06:49;;;;;;;1.65;1.15;;;21.90;90.50;;;;;;4973629;28;20479;-75
2021/08/25 05:09:15;;;;;;;2.40;1.20;;;22.00;90.70;;;;;;4972607;28;20038;-75
2021/08/25 05:11:41;;;;;;;3.22;1.58;;;21.90;90.30;;;;;;4973655;28;20479;-76
2021/08/25 05:14:06;;;;;;;2.20;1.50;;;22.00;90.50;;;;;;4973476;28;20364;-76
2021/08/25 05:16:32;;;;;;;2.40;1.30;;;22.00;90.30;;;;;;4973322;28;20031;-76
2021/08/25 05:18:57;;;;;;;3.00;1.10;;;21.90;90.30;;;;;;4973479;28;20023;-75
2021/08/25 05:21:23;;;;;;;1.60;1.10;;;21.90;90.20;;;;;;4973712;28;20030;-75
2021/08/25 05:23:49;;;;;;;2.03;1.17;;;21.90;90.20;;;;;;4972790;28;20039;-74
2021/08/25 05:26:15;;;;;;;2.72;1.25;;;21.90;90.20;;;;;;4972564;28;20081;-73
2021/08/25 05:28:41;;;;;;;2.10;1.23;;;21.90;90.30;;;;;;4973069;28;20042;-73
2021/08/25 05:31:06;;;;;;;2.83;1.50;;;21.90;90.30;;;;;;4943776;28;20030;-74
2021/08/25 05:33:32;;;;;;;3.65;1.20;;;21.90;90.20;;;;;;4973106;28;20042;-76
2021/08/25 05:35:59;;;;;;;3.22;1.23;;;21.90;90.30;;;;;;4972913;28;20441;-74
2021/08/25 05:38:25;;;;;;;1.77;1.02;;;21.90;90.50;;;;;;4972369;28;20037;-73
2021/08/25 05:40:50;;;;;;;2.55;1.48;;;21.90;90.40;;;;;;4973184;28;20039;-74
2021/08/25 05:43:17;;;;;;;1.85;1.13;;;21.90;90.50;;;;;;4969955;28;20026;-75
2021/08/25 05:45:43;;;;;;;2.38;1.50;;;21.90;90.10;;;;;;4971765;28;20475;-75
2021/08/25 05:48:09;;;;;;;2.10;1.30;;;21.90;90.40;;;;;;4972918;28;20102;-75
2021/08/25 05:50:34;;;;;;;1.88;1.33;;;21.90;90.30;;;;;;4972376;28;20440;-76
2021/08/25 05:53:00;;;;;;;1.85;1.05;;;21.90;90.50;;;;;;4970977;28;20058;-74
2021/08/25 05:55:26;;;;;;;2.42;1.20;;;21.90;90.50;;;;;;4972065;28;20030;-74
2021/08/25 05:57:51;;;;;;;3.17;1.60;;;21.90;90.50;;;;;;4960068;28;20034;-74
2021/08/25 06:00:19;;;;;;;2.72;1.10;;;21.90;90.30;;;;;;4952780;28;20031;-74
2021/08/25 06:02:45;;;;;;;3.60;1.70;;;21.90;90.60;;;;;;4969972;28;20027;-75
2021/08/25 06:05:12;;;;;;;4.05;1.60;;;21.90;90.60;;;;;;4972424;28;20450;-75
2021/08/25 06:07:37;;;;;;;2.90;1.05;;;21.90;90.50;;;;;;4955538;28;20018;-75
2021/08/25 06:10:04;;;;;;;2.47;1.25;;;21.80;90.60;;;;;;4971370;28;20077;-73
2021/08/25 06:12:30;;;;;;;2.88;1.67;;;21.80;90.40;;;;;;4972715;28;20035;-73
2021/08/25 06:14:55;;;;;;;3.10;1.60;;;21.80;90.40;;;;;;4971835;28;20392;-74
2021/08/25 06:17:21;;;;;;;2.53;1.45;;;21.80;90.20;;;;;;4971076;28;20364;-76
2021/08/25 06:19:47;;;;;;;1.70;1.20;;;21.80;90.30;;;;;;4954885;28;20037;-76
2021/08/25 06:22:12;;;;;;;1.85;1.33;;;21.80;90.10;;;;;;4970577;28;20113;-75
2021/08/25 06:24:38;;;;;;;3.03;1.13;;;21.80;90.30;;;;;;4971413;28;20037;-78
2021/08/25 06:27:04;;;;;;;3.03;1.52;;;21.80;90.20;;;;;;4958009;28;20426;-79
2021/08/25 06:29:30;;;;;;;3.30;2.00;;;21.80;90.10;;;;;;4973197;28;20042;-78
2021/08/25 06:31:56;;;;;;;4.53;1.98;;;21.80;90.00;;;;;;4972523;28;20051;-80
2021/08/25 06:34:22;;;;;;;3.05;2.00;;;21.80;90.10;;;;;;4972353;28;20031;-76
2021/08/25 06:36:48;;;;;;;2.88;1.88;;;21.80;90.10;;;;;;4972471;28;20395;-72
2021/08/25 06:39:14;;;;;;;3.97;2.92;;;21.80;89.60;;;;;;4971619;28;20030;-76
2021/08/25 06:41:40;;;;;;;4.60;2.50;;;21.80;90.00;;;;;;4971831;28;20045;-80
2021/08/25 06:44:06;;;;;;;6.63;2.45;;;21.80;89.90;;;;;;4971447;28;20022;-75
2021/08/25 06:46:31;;;;;;;3.85;2.35;;;21.90;89.80;;;;;;4972340;28;20031;-80
2021/08/25 06:48:57;;;;;;;3.88;2.75;;;21.80;89.80;;;;;;4973587;28;20023;-76
2021/08/25 06:51:23;;;;;;;54.75;36.45;;;21.80;90.00;;;;;;4972051;28;20022;-79
2021/08/25 06:53:48;;;;;;;18.00;11.27;;;21.90;90.00;;;;;;4971963;28;20150;-81
2021/08/25 06:56:14;;;;;;;22.75;14.25;;;21.80;90.20;;;;;;4971179;28;20039;-79
2021/08/25 06:58:39;;;;;;;31.48;19.30;;;21.80;90.20;;;;;;4972132;28;20106;-81
2021/08/25 07:01:05;;;;;;;30.52;19.60;;;21.80;90.40;;;;;;4970608;28;20081;-75
2021/08/25 07:03:31;;;;;;;22.80;15.85;;;21.80;90.50;;;;;;4972356;28;20077;-77
2021/08/25 07:05:56;;;;;;;19.08;13.02;;;21.90;90.60;;;;;;4972530;28;20387;-79
2021/08/25 07:08:22;;;;;;;23.52;13.48;;;21.90;90.70;;;;;;4967642;28;20031;-74
2021/08/25 07:10:48;;;;;;;20.55;13.40;;;21.80;90.70;;;;;;4971643;28;20058;-77
2021/08/25 07:13:14;;;;;;;20.70;11.73;;;21.90;90.70;;;;;;4974719;28;20034;-76
2021/08/25 07:15:39;;;;;;;17.08;11.48;;;21.90;90.60;;;;;;4965122;28;20740;-73
2021/08/25 07:18:05;;;;;;;16.98;10.23;;;21.90;90.70;;;;;;4956368;29;20506;-74
2021/08/25 07:20:31;;;;;;;18.08;10.40;;;21.90;90.60;;;;;;4956555;29;20098;-75
2021/08/25 07:22:56;;;;;;;19.35;9.07;;;21.90;90.50;;;;;;4956800;29;20037;-75
2021/08/25 07:25:22;;;;;;;13.55;9.00;;;21.90;90.30;;;;;;4956255;29;20388;-76
2021/08/25 07:27:48;;;;;;;12.48;7.47;;;21.90;90.40;;;;;;4956159;29;20043;-76
2021/08/25 07:30:13;;;;;;;11.57;7.43;;;21.90;90.10;;;;;;4956148;29;20095;-75
2021/08/25 07:32:40;;;;;;;13.98;6.90;;;21.90;90.10;;;;;;4952706;28;20039;-75
2021/08/25 07:35:11;;;;;;;13.90;8.80;;;21.90;90.00;;;;;;4973112;28;20026;-74
2021/08/25 07:37:37;;;;;;;12.30;9.70;;;21.90;90.00;;;;;;4943448;28;20038;-75
2021/08/25 07:40:05;;;;;;;18.08;11.38;;;21.80;89.70;;;;;;4955373;28;20505;-75
2021/08/25 07:42:30;;;;;;;15.10;10.05;;;21.80;89.40;;;;;;4974132;28;20085;-75
2021/08/25 07:44:56;;;;;;;14.85;10.25;;;21.70;89.40;;;;;;4975381;28;20023;-75
2021/08/25 07:47:23;;;;;;;15.23;10.50;;;21.70;89.90;;;;;;4975128;28;20051;-75
2021/08/25 07:49:49;;;;;;;14.35;9.80;;;21.70;89.60;;;;;;4975308;28;20089;-76
2021/08/25 07:52:15;;;;;;;15.25;9.40;;;21.60;90.00;;;;;;4974912;28;20035;-75
2021/08/25 07:54:41;;;;;;;16.52;10.00;;;21.60;89.90;;;;;;4974834;28;20483;-76
2021/08/25 07:57:07;;;;;;;12.02;9.05;;;;;;;;;;4974456;28;20035;-77
2021/08/25 07:59:32;;;;;;;12.70;9.27;;;21.60;89.50;;;;;;4975177;28;20023;-76
2021/08/25 08:01:58;;;;;;;11.35;8.60;;;21.50;90.20;;;;;;4975345;28;20035;-77
2021/08/25 08:04:24;;;;;;;10.73;7.53;;;21.50;90.30;;;;;;4974698;28;20027;-77
2021/08/25 08:06:50;;;;;;;11.77;7.00;;;21.50;90.40;;;;;;4974998;28;20038;-77
2021/08/25 08:09:16;;;;;;;10.05;5.85;;;21.50;90.70;;;;;;4974738;28;20015;-77
2021/08/25 08:11:41;;;;;;;9.38;6.07;;;21.50;90.80;;;;;;4974163;28;20035;-77
2021/08/25 08:14:08;;;;;;;10.45;5.28;;;21.50;91.00;;;;;;4974618;28;20086;-77
2021/08/25 08:16:36;;;;;;;10.63;5.90;;;21.50;90.80;;;;;;4974545;28;20415;-76
2021/08/25 08:19:29;;;;;;;8.57;5.10;;;21.50;90.50;;;;;;4958018;28;20126;-76
2021/08/25 08:21:50;;;;;;;9.88;5.25;;;21.50;90.50;;;;;;4973705;28;20046;-76
2021/08/25 08:24:16;;;;;;;9.60;5.55;;;21.50;90.50;;;;;;4972342;28;20430;-76
2021/08/25 08:26:42;;;;;;;8.73;4.82;;;21.50;90.50;;;;;;4953292;29;20034;-75
2021/08/25 08:29:08;;;;;;;7.80;4.35;;;21.60;90.50;;;;;;4955054;29;20027;-76
2021/08/25 08:31:34;;;;;;;8.23;4.63;;;21.60;90.50;;;;;;4955125;29;20038;-76
2021/08/25 08:34:00;;;;;;;7.63;4.30;;;21.60;90.40;;;;;;4938350;29;20031;-76
2021/08/25 08:36:25;;;;;;;9.07;4.72;;;21.60;90.50;;;;;;4954922;29;20094;-75
2021/08/25 08:38:52;;;;;;;6.32;3.75;;;21.60;90.50;;;;;;4955149;29;20123;-76
2021/08/25 08:41:18;;;;;;;7.00;3.60;;;21.60;90.40;;;;;;4965434;28;20039;-76
2021/08/25 08:43:46;;;;;;;7.53;3.80;;;21.60;90.40;;;;;;4974352;28;20497;-75
2021/08/25 08:46:16;;;;;;;7.18;3.83;;;21.60;90.40;;;;;;4973963;28;20035;-75
2021/08/25 08:48:43;;;;;;;6.78;3.35;;;21.60;90.40;;;;;;4974332;28;20490;-75
2021/08/25 08:51:10;;;;;;;4.82;3.20;;;;;;;;;;4973898;28;20027;-76
2021/08/25 08:53:36;;;;;;;5.15;3.13;;;;;;;;;;4972853;28;20026;-75
2021/08/25 08:56:02;;;;;;;6.75;3.05;;;;;;;;;;4971924;28;20030;-76
2021/08/25 08:58:29;;;;;;;5.53;3.15;;;;;;;;;;4974116;28;20487;-76
2021/08/25 09:00:55;;;;;;;4.25;2.83;;;;;;;;;;4972728;28;20034;-76
2021/08/25 09:03:22;;;;;;;3.80;2.60;;;;;;;;;;4972503;28;20027;-75
2021/08/25 09:05:58;;;;;;;5.55;3.05;;;;;;;;;;4972689;28;20038;-76
2021/08/25 09:08:26;;;;;;;4.97;2.92;;;;;;;;;;4972343;28;20027;-76
2021/08/25 09:11:13;;;;;;;4.78;3.08;;;;;;;;;;4973332;28;20035;-75
2021/08/25 09:13:41;;;;;;;6.05;2.67;;;;;;;;;;4954293;28;20031;-76
2021/08/25 09:16:07;;;;;;;6.15;2.65;;;;;;;;;;4953021;29;20034;-76
2021/08/25 09:18:33;;;;;;;5.50;2.95;;;;;;;;;;4954575;29;20387;-76
2021/08/25 09:21:00;;;;;;;4.90;2.50;;;;;;;;;;4953724;29;20383;-76
2021/08/25 09:23:27;;;;;;;4.35;2.60;;;;;;;;;;4952863;29;20522;-76
2021/08/25 09:25:55;;;;;;;7.22;2.40;;;;;;;;;;4956781;28;20038;-76
2021/08/25 09:28:34;;;;;;;4.65;2.50;;;;;;;;;;4972810;28;20027;-75
2021/08/25 09:31:02;;;;;;;5.93;2.67;;;;;;;;;;4956559;28;20050;-75
2021/08/25 09:33:32;;;;;;;4.97;2.15;;;;;;;;;;4973761;28;20039;-75
2021/08/25 09:36:00;;;;;;;4.13;2.20;;;;;;;;;;4972382;28;20395;-75
2021/08/25 09:38:27;;;;;;;4.28;2.60;;;;;;;;;;4970670;28;20034;-75
2021/08/25 09:40:54;;;;;;;3.70;1.80;;;;;;;;;;4971625;28;20023;-75
2021/08/25 09:43:37;;;;;;;3.95;1.90;;;;;;;;;;4972576;28;20039;-75
2021/08/25 09:46:04;;;;;;;3.65;2.47;;;;;;;;;;4973039;28;20565;-76
2021/08/25 09:48:34;;;;;;;3.38;2.13;;;;;;;;;;4973380;28;20023;-77
2021/08/25 09:51:00;;;;;;;4.28;2.05;;;;;;;;;;4972048;28;20042;-76
2021/08/25 09:53:26;;;;;;;4.03;1.90;;;;;;;;;;4972048;28;20465;-76
2021/08/25 09:55:52;;;;;;;4.07;1.83;;;;;;;;;;4973026;28;20109;-76
2021/08/25 09:58:20;;;;;;;3.72;1.95;;;;;;;;;;4972005;28;20037;-75
2021/08/25 10:00:46;;;;;;;6.22;2.40;;;;;;;;;;4971458;28;20027;-75
2021/08/25 10:03:12;;;;;;;2.47;1.73;;;;;;;;;;4966708;28;20550;-76
2021/08/25 10:05:39;;;;;;;5.28;1.98;;;;;;;;;;4972699;28;20027;-77
2021/08/25 10:08:05;;;;;;;3.17;1.80;;;;;;;;;;4972294;28;20498;-75
2021/08/25 10:10:31;;;;;;;4.97;2.38;;;;;;;;;;4972927;28;20427;-76
2021/08/25 10:12:57;;;;;;;3.25;2.00;;;;;;;;;;4971671;28;20039;-76
2021/08/25 10:15:40;;;;;;;3.47;1.88;;;;;;;;;;4971324;28;20058;-75
2021/08/25 10:18:26;;;;;;;4.47;2.03;;;;;;;;;;4972532;28;20030;-74
2021/08/25 10:20:53;;;;;;;4.03;1.85;;;;;;;;;;4952341;28;20117;-74
2021/08/25 10:23:19;;;;;;;3.90;2.33;;;;;;;;;;4971110;28;20031;-74
2021/08/25 10:26:06;;;;;;;3.42;1.95;;;;;;;;;;4972664;28;20069;-74
2021/08/25 10:28:55;;;;;;;3.60;1.90;;;;;;;;;;4970662;28;20038;-74
2021/08/25 10:31:21;;;;;;;2.63;1.55;;;;;;;;;;4962246;28;20046;-75
2021/08/25 10:34:05;;;;;;;3.47;2.00;;;;;;;;;;4972437;28;20372;-77
2021/08/25 10:36:34;;;;;;;3.53;2.15;;;;;;;;;;4972087;28;20439;-75
2021/08/25 10:39:00;;;;;;;4.35;2.08;;;;;;;;;;4968419;28;20539;-75
2021/08/25 10:41:26;;;;;;;4.05;2.05;;;;;;;;;;4971068;28;20106;-73
2021/08/25 10:43:55;;;;;;;4.43;1.33;;;;;;;;;;4970850;28;20034;-78
2021/08/25 10:46:21;;;;;;;5.05;1.88;;;;;;;;;;4971881;28;20720;-72
2021/08/25 10:48:50;;;;;;;3.08;1.92;;;;;;;;;;4972256;28;20479;-72
2021/08/25 10:51:29;;;;;;;4.10;1.90;;;;;;;;;;4971042;28;20446;-72
2021/08/25 10:53:55;;;;;;;3.33;1.80;;;;;;;;;;4974028;28;20066;-72
2021/08/25 10:56:24;;;;;;;4.50;1.90;;;;;;;;;;4972233;28;20090;-72
2021/08/25 10:58:52;;;;;;;3.95;1.90;;;;;;;;;;4970953;28;20456;-72
2021/08/25 11:01:24;;;;;;;3.17;1.70;;;;;;;;;;4971867;28;20055;-72
2021/08/25 11:03:51;;;;;;;5.60;1.45;;;;;;;;;;4970839;28;20031;-71
2021/08/25 11:06:29;;;;;;;3.88;1.77;;;;;;;;;;4970709;28;20031;-72
2021/08/25 11:09:11;;;;;;;3.13;1.80;;;;;;;;;;4971739;28;20066;-71
2021/08/25 11:11:37;;;;;;;3.22;1.60;;;;;;;;;;4971560;28;20035;-73
2021/08/25 11:14:03;;;;;;;3.47;1.67;;;;;;;;;;4971440;28;20030;-72
2021/08/25 11:16:29;;;;;;;5.75;2.15;;;;;;;;;;4972360;28;20026;-75
2021/08/25 11:18:55;;;;;;;6.15;2.03;;;;;;;;;;4972115;28;20058;-75
2021/08/25 11:21:21;;;;;;;6.50;1.67;;;;;;;;;;4971838;28;20050;-73
2021/08/25 11:23:57;;;;;;;4.03;1.98;;;;;;;;;;4972098;28;20088;-74
2021/08/25 11:26:23;;;;;;;;;;;;;;;;;;4971574;28;20050;-73
2021/08/25 11:28:49;;;;;;;;;;;;;;;;;;4972402;28;19968;-72
2021/08/25 11:31:25;;;;;;;3.55;1.85;;;;;;;;;;4971656;28;20321;-76
2021/08/25 11:33:51;;;;;;;3.85;1.60;;;;;;;;;;4970544;28;20038;-73
2021/08/25 11:36:17;;;;;;;3.70;1.98;;;;;;;;;;4970591;28;20486;-74
2021/08/25 11:38:43;;;;;;;3.30;1.88;;;;;;;;;;4970634;28;20626;-75
2021/08/25 11:41:09;;;;;;;5.00;1.85;;;;;;;;;;4970373;28;20106;-74
2021/08/25 11:43:45;;;;;;;3.60;1.60;;;;;;;;;;4971633;28;20089;-74
2021/08/25 11:46:11;;;;;;;2.88;1.63;;;;;;;;;;4971448;28;20023;-72
2021/08/25 11:48:37;;;;;;;3.03;1.42;;;;;;;;;;4971786;28;20498;-72
2021/08/25 11:51:04;;;;;;;3.60;1.75;;;;;;;;;;4971578;28;20027;-72
2021/08/25 11:53:32;;;;;;;3.25;1.88;;;;;;;;;;4971962;28;20110;-72
2021/08/25 11:55:59;;;;;;;3.45;1.50;;;;;;;;;;4971442;28;20030;-73
2021/08/25 11:58:30;;;;;;;3.45;1.63;;;;;;;;;;4971507;28;20057;-73
2021/08/25 12:00:57;;;;;;;6.70;2.20;;;;;;;;;;4975363;28;20023;-73
2021/08/25 12:03:39;;;;;;;5.05;1.80;;;;;;;;;;4974877;28;20113;-73
2021/08/25 12:06:05;;;;;;;3.25;2.17;;;;;;;;;;4974843;28;20107;-72
2021/08/25 12:08:41;;;;;;;4.82;1.60;;;;;;;;;;4975260;28;20035;-73
2021/08/25 12:11:08;;;;;;;5.82;1.50;;;;;;;;;;4973874;28;20097;-74
2021/08/25 12:13:35;;;;;;;3.47;1.63;;;;;;;;;;4973784;28;20507;-73
2021/08/25 12:16:03;;;;;;;3.80;1.60;;;;;;;;;;4974835;28;20031;-72
2021/08/25 12:18:30;;;;;;;3.70;1.65;;;;;;;;;;4973799;28;20062;-72
2021/08/25 12:20:57;;;;;;;2.70;1.20;;;;;;;;;;4974837;28;20109;-73
2021/08/25 12:23:24;;;;;;;3.08;1.90;;;;;;;;;;4974521;28;20034;-73
2021/08/25 12:25:50;;;;;;;3.63;1.90;;;;;;;;;;4971903;28;20050;-73
2021/08/25 12:28:30;;;;;;;5.75;1.80;;;;;;;;;;4974426;28;20066;-75
2021/08/25 12:31:09;;;;;;;3.28;1.60;;;;;;;;;;4974607;28;20447;-74
2021/08/25 12:33:35;;;;;;;2.88;1.77;;;;;;;;;;4974685;28;20027;-74
2021/08/25 12:36:19;;;;;;;2.33;1.33;;;;;;;;;;4973352;28;20546;-73
2021/08/25 12:38:45;;;;;;;2.25;1.42;;;;;;;;;;4974557;28;20614;-75
2021/08/25 12:41:26;;;;;;;2.78;1.77;;;;;;;;;;4973335;28;20042;-77
2021/08/25 12:43:52;;;;;;;2.67;1.67;;;;;;;;;;4974069;28;20066;-76
2021/08/25 12:46:18;;;;;;;3.75;1.77;;;;;;;;;;4974055;28;20033;-72
2021/08/25 12:48:44;;;;;;;3.67;1.83;;;;;;;;;;4974309;28;20049;-71
2021/08/25 12:51:10;;;;;;;3.28;1.50;;;;;;;;;;4973838;28;20030;-73
2021/08/25 12:53:36;;;;;;;3.20;1.50;;;;;;;;;;4973874;28;20019;-73
2021/08/25 12:56:02;;;;;;;3.30;1.48;;;;;;;;;;4973659;28;20085;-72
2021/08/25 12:58:28;;;;;;;3.70;1.73;;;;;;;;;;4972534;28;20392;-72
2021/08/25 13:00:54;;;;;;;3.40;1.75;;;;;;;;;;4974116;28;20027;-73
2021/08/25 13:03:20;;;;;;;3.17;1.90;;;;;;;;;;4973766;28;20022;-72
2021/08/25 13:05:46;;;;;;;3.88;1.73;;;;;;;;;;4974038;28;20067;-71
2021/08/25 13:08:12;;;;;;;3.38;1.73;;;;;;;;;;4973282;28;20101;-73
2021/08/25 13:10:38;;;;;;;3.78;2.00;;;;;;;;;;4972154;28;20050;-72
2021/08/25 13:13:06;;;;;;;3.38;1.65;;;;;;;;;;4972792;28;20081;-72
2021/08/25 13:15:32;;;;;;;4.45;1.92;;;;;;;;;;4973618;28;20499;-72
2021/08/25 13:17:58;;;;;;;3.28;1.48;;;;;;;;;;4974053;28;20022;-75
2021/08/25 13:20:24;;;;;;;4.13;1.48;;;;;;;;;;4971762;28;20115;-76
2021/08/25 13:22:50;;;;;;;3.55;1.80;;;;;;;;;;4973721;28;20042;-76